createdAt,value
2019-03-20T00:01:43.726Z,52.60
2019-03-20T00:04:28.104Z,52.60
2019-03-20T00:07:16.289Z,52.70
2019-03-20T00:10:06.753Z,52.70
2019-03-20T00:12:55.215Z,52.70
2019-03-20T00:15:43.754Z,52.70
2019-03-20T00:18:32.951Z,52.80
2019-03-20T00:21:21.243Z,52.80
2019-03-20T00:24:09.842Z,52.90
2019-03-20T00:26:58.275Z,52.90
2019-03-20T00:29:46.965Z,52.90
2019-03-20T00:32:35.176Z,53.00
2019-03-20T00:35:23.870Z,53.00
2019-03-20T00:38:12.428Z,53.00
2019-03-20T00:41:00.888Z,53.00
2019-03-20T00:43:49.532Z,53.00
2019-03-20T00:46:37.938Z,53.10
2019-03-20T00:49:26.266Z,53.10
2019-03-20T00:52:15.150Z,53.20
2019-03-20T00:55:04.568Z,53.20
2019-03-20T00:57:53.695Z,53.20
2019-03-20T01:00:41.868Z,53.20
2019-03-20T01:03:30.053Z,53.30
2019-03-20T01:06:18.087Z,53.20
2019-03-20T01:09:07.541Z,53.20
2019-03-20T01:11:55.862Z,53.20
2019-03-20T01:14:44.354Z,53.20
2019-03-20T01:17:33.819Z,53.10
2019-03-20T01:20:24.154Z,53.10
2019-03-20T01:23:12.434Z,53.10
2019-03-20T01:26:01.392Z,53.10
2019-03-20T01:28:50.456Z,53.10
2019-03-20T01:31:38.478Z,53.10
2019-03-20T01:34:26.782Z,53.00
2019-03-20T01:37:15.531Z,53.10
2019-03-20T01:40:06.154Z,53.00
2019-03-20T01:42:54.716Z,53.00
2019-03-20T01:45:44.834Z,53.00
2019-03-20T01:48:41.148Z,53.00
2019-03-20T01:51:29.600Z,52.90
2019-03-20T01:54:17.924Z,53.00
2019-03-20T01:57:06.150Z,52.90
2019-03-20T01:59:54.626Z,52.90
2019-03-20T02:02:43.325Z,52.90
2019-03-20T02:05:36.226Z,52.90
2019-03-20T02:08:22.664Z,52.90
2019-03-20T02:11:11.001Z,52.80
2019-03-20T02:13:59.372Z,52.80
2019-03-20T02:16:47.624Z,52.80
2019-03-20T02:19:36.050Z,52.80
2019-03-20T02:22:24.999Z,52.80
2019-03-20T02:25:14.050Z,52.80
2019-03-20T02:28:02.730Z,52.80
2019-03-20T02:30:51.460Z,52.80
2019-03-20T02:33:40.090Z,52.90
2019-03-20T02:36:28.553Z,52.90
2019-03-20T02:39:16.963Z,53.00
2019-03-20T02:42:05.260Z,53.00
2019-03-20T02:44:53.364Z,52.90
2019-03-20T02:47:42.326Z,53.00
2019-03-20T02:50:30.339Z,53.00
2019-03-20T02:53:18.946Z,53.00
2019-03-20T02:56:07.582Z,53.10
2019-03-20T02:58:56.001Z,53.20
2019-03-20T03:01:45.463Z,53.20
2019-03-20T03:04:34.462Z,53.20
2019-03-20T03:07:23.903Z,53.20
2019-03-20T03:10:14.760Z,53.20
2019-03-20T03:13:03.335Z,53.30
2019-03-20T03:15:51.642Z,53.40
2019-03-20T03:18:39.967Z,53.40
2019-03-20T03:21:28.494Z,53.40
2019-03-20T03:24:17.260Z,53.40
2019-03-20T03:27:05.609Z,53.50
2019-03-20T03:29:53.868Z,53.50
2019-03-20T03:32:42.422Z,53.50
2019-03-20T03:35:31.113Z,53.50
2019-03-20T03:38:19.404Z,53.60
2019-03-20T03:41:07.771Z,53.50
2019-03-20T03:43:56.233Z,53.60
2019-03-20T03:46:44.735Z,53.50
2019-03-20T03:49:33.448Z,53.50
2019-03-20T03:52:22.375Z,53.50
2019-03-20T03:55:15.729Z,53.50
2019-03-20T03:58:04.591Z,53.40
2019-03-20T04:00:53.720Z,53.40
2019-03-20T04:03:42.089Z,53.40
2019-03-20T04:06:35.940Z,53.40
2019-03-20T04:09:21.264Z,53.50
2019-03-20T04:12:09.296Z,53.40
2019-03-20T04:14:57.959Z,53.40
2019-03-20T04:17:46.620Z,53.50
2019-03-20T04:20:34.738Z,53.50
2019-03-20T04:23:22.823Z,53.30
2019-03-20T04:26:11.802Z,53.20
2019-03-20T04:29:00.459Z,53.10
2019-03-20T04:31:48.985Z,52.90
2019-03-20T04:34:37.418Z,52.70
2019-03-20T04:37:26.367Z,52.50
2019-03-20T04:40:15.922Z,52.30
2019-03-20T04:43:04.914Z,52.20
2019-03-20T04:45:53.305Z,52.00
2019-03-20T04:48:41.710Z,51.80
2019-03-20T04:51:29.935Z,52.30
2019-03-20T04:54:18.449Z,51.70
2019-03-20T04:57:07.019Z,51.70
2019-03-20T04:59:55.248Z,51.80
2019-03-20T05:02:43.519Z,51.80
2019-03-20T05:05:31.600Z,51.80
2019-03-20T05:08:20.232Z,51.80
2019-03-20T05:11:09.025Z,51.90
2019-03-20T05:13:57.638Z,51.90
2019-03-20T05:16:46.156Z,51.90
2019-03-20T05:19:34.579Z,51.90
2019-03-20T05:22:23.259Z,51.90
2019-03-20T05:25:11.996Z,52.00
2019-03-20T05:28:01.576Z,51.90
2019-03-20T05:30:49.901Z,52.00
2019-03-20T05:33:38.443Z,52.00
2019-03-20T05:36:26.752Z,52.00
2019-03-20T05:39:15.928Z,52.00
2019-03-20T05:42:04.879Z,52.10
2019-03-20T05:44:53.206Z,52.00
2019-03-20T05:47:41.367Z,52.10
2019-03-20T05:50:29.845Z,52.10
2019-03-20T05:53:18.089Z,52.10
2019-03-20T05:56:06.427Z,52.20
2019-03-20T05:58:54.951Z,52.20
2019-03-20T06:01:43.563Z,52.20
2019-03-20T06:04:32.497Z,52.20
2019-03-20T06:07:21.893Z,52.20
2019-03-20T06:10:13.941Z,52.20
2019-03-20T06:13:02.605Z,52.40
2019-03-20T06:15:50.945Z,52.40
2019-03-20T06:18:39.361Z,52.30
2019-03-20T06:21:28.137Z,52.40
2019-03-20T06:24:16.223Z,52.40
2019-03-20T06:27:05.551Z,52.40
2019-03-20T06:29:54.156Z,52.40
2019-03-20T06:32:42.635Z,52.40
2019-03-20T06:35:31.241Z,52.40
2019-03-20T06:38:19.392Z,52.50
2019-03-20T06:41:07.696Z,52.60
2019-03-20T06:43:56.309Z,52.70
2019-03-20T06:46:45.407Z,52.70
2019-03-20T06:49:34.216Z,52.60
2019-03-20T06:52:22.591Z,52.60
2019-03-20T06:55:11.959Z,52.50
2019-03-20T06:58:00.939Z,52.50
2019-03-20T07:00:55.119Z,52.60
2019-03-20T07:03:49.424Z,52.60
2019-03-20T07:06:46.932Z,52.60
2019-03-20T07:09:38.296Z,52.60
2019-03-20T07:12:26.792Z,52.70
2019-03-20T07:15:15.250Z,52.60
2019-03-20T07:18:03.651Z,52.70
2019-03-20T07:20:51.927Z,52.70
2019-03-20T07:23:39.976Z,52.60
2019-03-20T07:26:29.002Z,52.60
2019-03-20T07:29:18.072Z,52.50
2019-03-20T07:32:06.841Z,52.60
2019-03-20T07:34:55.151Z,52.60
2019-03-20T07:37:43.535Z,52.60
2019-03-20T07:40:31.813Z,52.70
2019-03-20T07:43:20.450Z,52.70
2019-03-20T07:46:08.785Z,52.60
2019-03-20T07:48:57.329Z,52.50
2019-03-20T07:51:45.822Z,52.50
2019-03-20T07:54:34.392Z,52.40
2019-03-20T07:57:23.074Z,52.80
2019-03-20T08:00:13.824Z,52.70
2019-03-20T08:03:02.288Z,52.70
2019-03-20T08:05:51.174Z,52.80
2019-03-20T08:08:40.139Z,52.90
2019-03-20T08:11:28.526Z,52.90
2019-03-20T08:14:16.649Z,52.90
2019-03-20T08:17:04.912Z,53.70
2019-03-20T08:19:53.250Z,53.80
2019-03-20T08:22:23.962Z,53.80
2019-03-20T08:24:55.805Z,53.80
2019-03-20T08:27:26.785Z,53.60
2019-03-20T08:29:57.471Z,53.40
2019-03-20T08:32:45.802Z,53.40
2019-03-20T08:35:34.493Z,53.40
2019-03-20T08:38:23.022Z,53.40
2019-03-20T08:41:11.210Z,53.20
2019-03-20T08:43:59.689Z,53.60
2019-03-20T08:46:48.540Z,53.60
2019-03-20T08:49:36.824Z,53.80
2019-03-20T08:52:25.360Z,53.80
2019-03-20T08:55:16.210Z,54.00
2019-03-20T08:58:04.966Z,53.90
2019-03-20T09:00:53.474Z,54.00
2019-03-20T09:03:42.223Z,53.90
2019-03-20T09:06:30.386Z,54.00
2019-03-20T09:09:18.717Z,54.00
2019-03-20T09:12:07.040Z,53.90
2019-03-20T09:14:55.424Z,53.90
2019-03-20T09:17:44.109Z,53.90
2019-03-20T09:20:33.855Z,53.80
2019-03-20T09:23:22.021Z,53.70
2019-03-20T09:26:10.686Z,53.70
2019-03-20T09:28:59.422Z,53.60
2019-03-20T09:31:48.361Z,53.60
2019-03-20T09:34:36.859Z,53.50
2019-03-20T09:37:25.163Z,53.90
2019-03-20T09:40:24.112Z,53.50
2019-03-20T09:43:13.013Z,53.40
2019-03-20T09:46:02.000Z,53.40
2019-03-20T09:48:50.043Z,53.30
2019-03-20T09:51:38.651Z,53.20
2019-03-20T09:54:27.047Z,53.20
2019-03-20T09:57:15.470Z,53.10
2019-03-20T10:00:07.774Z,53.10
2019-03-20T10:02:56.252Z,53.10
2019-03-20T10:05:44.704Z,53.10
2019-03-20T10:08:33.460Z,53.00
2019-03-20T10:11:21.778Z,53.00
2019-03-20T10:14:10.360Z,52.90
2019-03-20T10:16:58.703Z,52.90
2019-03-20T10:19:46.875Z,52.90
2019-03-20T10:22:35.263Z,52.80
2019-03-20T10:25:23.670Z,52.80
2019-03-20T10:28:12.155Z,52.80
2019-03-20T10:31:00.389Z,52.70
2019-03-20T10:33:48.669Z,52.70
2019-03-20T10:36:37.036Z,52.70
2019-03-20T10:39:25.154Z,52.70
2019-03-20T10:42:14.248Z,52.70
2019-03-20T10:45:02.624Z,52.70
2019-03-20T10:47:53.253Z,52.70
2019-03-20T10:50:41.721Z,52.70
2019-03-20T10:53:30.158Z,52.60
2019-03-20T10:56:18.838Z,52.60
2019-03-20T10:59:07.395Z,52.60
2019-03-20T11:01:56.388Z,52.60
2019-03-20T11:04:44.896Z,52.60
2019-03-20T11:07:33.316Z,52.50
2019-03-20T11:10:27.902Z,52.50
2019-03-20T11:13:16.338Z,52.50
2019-03-20T11:16:04.893Z,52.50
2019-03-20T11:18:53.202Z,52.50
2019-03-20T11:21:41.730Z,52.50
2019-03-20T11:24:15.214Z,52.40
2019-03-20T11:26:45.269Z,52.50
2019-03-20T11:29:21.666Z,52.50
2019-03-20T11:31:48.729Z,52.50
2019-03-20T11:34:20.377Z,52.40
2019-03-20T11:36:51.035Z,52.40
2019-03-20T11:39:29.671Z,52.40
2019-03-20T11:41:54.668Z,52.40
2019-03-20T11:44:25.337Z,52.40
2019-03-20T11:46:56.084Z,52.40
2019-03-20T11:49:44.480Z,52.40
2019-03-20T11:52:33.497Z,52.40
2019-03-20T11:55:21.994Z,52.40
2019-03-20T11:58:10.692Z,52.30
2019-03-20T12:00:59.233Z,52.30
2019-03-20T12:03:47.632Z,52.30
2019-03-20T12:06:35.709Z,52.30
2019-03-20T12:09:23.974Z,52.30
2019-03-20T12:12:12.448Z,52.30
2019-03-20T12:15:01.086Z,52.30
2019-03-20T12:17:49.925Z,52.30
2019-03-20T12:20:38.575Z,52.30
2019-03-20T12:23:27.237Z,52.40
2019-03-20T12:26:15.795Z,52.30
2019-03-20T12:29:04.477Z,52.30
2019-03-20T12:31:52.864Z,52.30
2019-03-20T12:34:41.683Z,52.30
2019-03-20T12:37:30.135Z,52.30
2019-03-20T12:40:26.982Z,52.30
2019-03-20T12:43:15.628Z,52.20
2019-03-20T12:46:04.236Z,52.20
2019-03-20T12:48:52.642Z,52.20
2019-03-20T12:51:41.249Z,52.10
2019-03-20T12:54:29.900Z,52.10
2019-03-20T12:57:18.424Z,52.10
2019-03-20T13:00:13.461Z,52.20
2019-03-20T13:03:02.370Z,52.20
2019-03-20T13:05:51.273Z,52.10
2019-03-20T13:08:39.412Z,52.20
2019-03-20T13:11:29.668Z,52.20
2019-03-20T13:14:17.910Z,52.20
2019-03-20T13:17:06.712Z,52.30
2019-03-20T13:19:55.098Z,52.30
2019-03-20T13:22:46.352Z,52.40
2019-03-20T13:25:35.267Z,52.30
2019-03-20T13:28:23.835Z,52.30
2019-03-20T13:31:15.680Z,52.30
2019-03-20T13:34:04.182Z,52.30
2019-03-20T13:36:52.994Z,52.30
2019-03-20T13:39:42.069Z,52.40
2019-03-20T13:42:30.205Z,52.40
2019-03-20T13:45:24.168Z,52.40
2019-03-20T13:48:12.708Z,52.50
2019-03-20T13:51:01.009Z,52.60
2019-03-20T13:53:49.578Z,52.60
2019-03-20T13:56:38.020Z,52.70
2019-03-20T13:59:26.363Z,52.90
2019-03-20T14:02:15.262Z,52.90
2019-03-20T14:05:04.755Z,52.90
2019-03-20T14:07:53.831Z,53.70
2019-03-20T14:10:50.450Z,54.30
2019-03-20T14:13:32.429Z,54.40
2019-03-20T14:16:20.604Z,54.40
2019-03-20T14:19:10.646Z,54.50
2019-03-20T14:21:59.292Z,54.80
2019-03-20T14:24:48.344Z,54.90
2019-03-20T14:27:36.821Z,54.90
2019-03-20T14:30:28.251Z,54.80
2019-03-20T14:33:16.346Z,54.70
2019-03-20T14:36:04.722Z,54.60
2019-03-20T14:38:53.490Z,55.20
2019-03-20T14:41:42.545Z,55.50
2019-03-20T14:44:30.758Z,55.50
2019-03-20T14:47:18.907Z,55.50
2019-03-20T14:50:13.276Z,55.30
2019-03-20T14:53:02.104Z,55.30
2019-03-20T14:55:51.069Z,55.20
2019-03-20T14:58:39.361Z,55.00
2019-03-20T15:01:27.804Z,55.00
2019-03-20T15:04:16.470Z,55.00
2019-03-20T15:07:05.271Z,54.90
2019-03-20T15:09:53.545Z,54.30
2019-03-20T15:12:41.885Z,54.00
2019-03-20T15:15:49.028Z,54.10
2019-03-20T15:18:36.937Z,54.10
2019-03-20T15:21:25.214Z,54.00
2019-03-20T15:24:13.359Z,53.90
2019-03-20T15:27:01.833Z,53.90
2019-03-20T15:29:49.877Z,53.90
2019-03-20T15:32:38.456Z,53.80
2019-03-20T15:35:27.099Z,53.80
2019-03-20T15:38:15.541Z,53.80
2019-03-20T15:41:03.932Z,53.80
2019-03-20T15:44:01.945Z,53.70
2019-03-20T15:46:42.269Z,53.60
2019-03-20T15:49:21.919Z,53.60
2019-03-20T15:52:10.354Z,53.60
2019-03-20T15:54:58.823Z,53.50
2019-03-20T15:57:47.101Z,53.60
2019-03-20T16:00:35.590Z,53.70
2019-03-20T16:03:42.098Z,53.60
2019-03-20T16:06:30.426Z,53.70
2019-03-20T16:09:18.756Z,54.00
2019-03-20T16:12:07.136Z,54.40
2019-03-20T16:14:55.637Z,54.40
2019-03-20T16:17:43.832Z,54.50
2019-03-20T16:20:32.297Z,54.50
2019-03-20T16:23:20.889Z,54.30
2019-03-20T16:26:09.505Z,54.60
2019-03-20T16:28:58.501Z,54.60
2019-03-20T16:32:07.590Z,54.70
2019-03-20T16:34:57.707Z,54.70
2019-03-20T16:37:47.516Z,54.70
2019-03-20T16:40:36.489Z,54.70
2019-03-20T16:43:26.390Z,54.90
2019-03-20T16:46:14.771Z,54.80
2019-03-20T16:49:03.244Z,54.80
2019-03-20T16:51:52.270Z,54.80
2019-03-20T16:54:40.575Z,54.80
2019-03-20T16:57:29.038Z,55.00
2019-03-20T17:00:25.636Z,55.00
2019-03-20T17:03:13.978Z,54.80
2019-03-20T17:06:02.294Z,54.80
2019-03-20T17:08:50.919Z,54.90
2019-03-20T17:11:39.155Z,54.70
2019-03-20T17:14:27.379Z,54.80
2019-03-20T17:17:16.031Z,54.70
2019-03-20T17:20:05.695Z,54.70
2019-03-20T17:22:54.079Z,54.70
2019-03-20T17:25:42.987Z,54.60
2019-03-20T17:28:31.205Z,54.50
2019-03-20T17:31:19.259Z,54.60
2019-03-20T17:34:09.697Z,54.70
2019-03-20T17:36:58.507Z,54.60
2019-03-20T17:39:46.829Z,54.50
2019-03-20T17:42:35.469Z,54.20
2019-03-20T17:45:26.287Z,53.80
2019-03-20T17:48:14.526Z,53.60
2019-03-20T17:50:45.261Z,53.50
2019-03-20T17:53:34.423Z,53.50
2019-03-20T17:56:05.976Z,53.50
2019-03-20T17:58:36.824Z,53.50
2019-03-20T18:01:07.571Z,53.50
2019-03-20T18:03:38.202Z,53.40
2019-03-20T18:06:26.481Z,53.40
2019-03-20T18:09:14.934Z,53.40
2019-03-20T18:12:03.693Z,53.30
2019-03-20T18:14:51.778Z,53.40
2019-03-20T18:17:41.440Z,53.30
2019-03-20T18:20:27.145Z,53.40
2019-03-20T18:23:15.337Z,53.40
2019-03-20T18:26:03.526Z,53.40
2019-03-20T18:28:51.596Z,53.40
2019-03-20T18:31:45.965Z,53.50
2019-03-20T18:34:32.039Z,53.50
2019-03-20T18:37:25.877Z,53.50
2019-03-20T18:40:19.676Z,53.50
2019-03-20T18:43:08.636Z,53.50
2019-03-20T18:45:59.915Z,53.50
2019-03-20T18:48:56.496Z,53.50
2019-03-20T18:51:47.857Z,53.50
2019-03-20T18:54:36.271Z,53.50
2019-03-20T18:57:25.440Z,53.50
2019-03-20T19:00:34.333Z,53.50
2019-03-20T19:03:29.041Z,53.40
2019-03-20T19:06:23.882Z,53.40
2019-03-20T19:09:12.142Z,53.40
2019-03-20T19:12:08.484Z,53.50
2019-03-20T19:14:50.790Z,53.30
2019-03-20T19:17:39.230Z,53.40
2019-03-20T19:20:28.714Z,53.40
2019-03-20T19:23:17.314Z,53.40
2019-03-20T19:26:06.038Z,53.50
2019-03-20T19:28:55.102Z,53.50
2019-03-20T19:31:43.657Z,53.50
2019-03-20T19:34:32.043Z,53.50
2019-03-20T19:37:20.546Z,53.40
2019-03-20T19:40:13.016Z,53.50
2019-03-20T19:43:01.819Z,53.50
2019-03-20T19:45:50.414Z,53.60
2019-03-20T19:48:39.216Z,53.50
2019-03-20T19:51:27.574Z,53.60
2019-03-20T19:54:16.459Z,53.60
2019-03-20T19:57:05.169Z,53.60
2019-03-20T19:59:54.516Z,53.60
2019-03-20T20:02:43.155Z,53.50
2019-03-20T20:05:31.488Z,53.50
2019-03-20T20:08:19.780Z,53.60
2019-03-20T20:11:11.518Z,53.60
2019-03-20T20:14:00.298Z,53.60
2019-03-20T20:16:48.566Z,53.70
2019-03-20T20:19:37.382Z,53.70
2019-03-20T20:22:08.039Z,53.70
2019-03-20T20:24:56.622Z,53.60
2019-03-20T20:27:45.333Z,53.60
2019-03-20T20:30:34.289Z,53.70
2019-03-20T20:33:22.560Z,53.60
2019-03-20T20:36:10.980Z,53.60
2019-03-20T20:39:00.023Z,53.60
2019-03-20T20:41:48.332Z,53.40
2019-03-20T20:44:36.991Z,53.40
2019-03-20T20:47:25.760Z,53.50
2019-03-20T20:50:15.841Z,53.50
2019-03-20T20:53:04.565Z,53.50
2019-03-20T20:55:53.860Z,53.60
2019-03-20T20:58:43.745Z,53.60
2019-03-20T21:01:32.325Z,53.60
2019-03-20T21:04:20.713Z,53.60
2019-03-20T21:07:09.042Z,53.60
2019-03-20T21:09:58.072Z,53.60
2019-03-20T21:12:55.633Z,53.60
2019-03-20T21:15:38.950Z,53.60
2019-03-20T21:18:39.400Z,53.70
2019-03-20T21:21:28.607Z,53.80
2019-03-20T21:24:23.318Z,53.90
2019-03-20T21:27:40.360Z,53.80
2019-03-20T21:30:31.669Z,54.00
2019-03-20T21:33:43.922Z,54.00
2019-03-20T21:36:41.816Z,54.10
2019-03-20T21:39:30.607Z,54.20
2019-03-20T21:42:34.173Z,54.20
2019-03-20T21:45:31.662Z,54.30
2019-03-20T21:48:20.221Z,54.40
2019-03-20T21:51:16.517Z,54.40
2019-03-20T21:54:27.609Z,54.50
2019-03-20T21:57:21.760Z,54.60
2019-03-20T22:00:19.171Z,54.50
2019-03-20T22:03:07.580Z,54.60
2019-03-20T22:06:07.930Z,54.60
2019-03-20T22:08:56.237Z,54.70
2019-03-20T22:12:13.515Z,54.80
2019-03-20T22:15:26.369Z,54.90
2019-03-20T22:18:32.872Z,54.90
2019-03-20T22:21:24.658Z,54.90
2019-03-20T22:24:44.378Z,55.00
2019-03-20T22:27:52.541Z,55.10
2019-03-20T22:30:40.749Z,55.20
2019-03-20T22:34:05.284Z,55.20
2019-03-20T22:36:54.558Z,55.20
2019-03-20T22:39:54.498Z,55.30
2019-03-20T22:42:56.018Z,55.40
2019-03-20T22:45:49.823Z,55.50
2019-03-20T22:49:05.593Z,55.50
2019-03-20T22:52:15.201Z,55.50
2019-03-20T22:55:24.434Z,55.60
2019-03-20T22:58:24.245Z,55.60
2019-03-20T23:01:18.320Z,55.70
2019-03-20T23:04:15.581Z,55.80
2019-03-20T23:07:04.635Z,55.90
2019-03-20T23:09:53.195Z,56.00
2019-03-20T23:12:42.753Z,56.00
2019-03-20T23:15:31.283Z,56.00
2019-03-20T23:18:20.273Z,56.10
2019-03-20T23:21:08.646Z,56.10
2019-03-20T23:23:57.582Z,56.10
2019-03-20T23:26:46.526Z,56.10
2019-03-20T23:29:34.836Z,56.10
2019-03-20T23:32:23.236Z,56.20
2019-03-20T23:35:11.276Z,56.20
2019-03-20T23:38:00.382Z,56.20
2019-03-20T23:40:49.478Z,56.30
2019-03-20T23:43:37.845Z,56.30
2019-03-20T23:46:26.607Z,56.30
2019-03-20T23:49:18.663Z,56.30
2019-03-20T23:52:06.843Z,56.40
2019-03-20T23:54:55.230Z,56.40
2019-03-20T23:57:43.477Z,56.50
